Time;durP1;ratioP1;P1;durP2;ratioP2;P2;SDS_P1;SDS_P2;PMS_P1;PMS_P2;Temp;Humidity;BMP_temperature;BMP_pressure;BME280_temperature;BME280_humidity;BME280_pressure;Samples;Min_cycle;Max_cycle;Signal;HPM_P1;HPM_P2
2022/05/15 00:02:49;;;;;;;14.45;8.28;;;;;;;11.49;65.61;100531.38;2135374;80;21053;-75
2022/05/15 00:05:58;;;;;;;16.17;7.58;;;;;;;11.48;65.45;100536.34;2184028;80;21047;-75
2022/05/15 00:08:59;;;;;;;19.40;8.55;;;;;;;11.46;65.63;100541.01;2178957;79;21061;-74
2022/05/15 00:12:03;;;;;;;15.25;8.13;;;;;;;11.48;65.65;100546.14;2182972;80;21045;-75
2022/05/15 00:15:06;;;;;;;16.57;8.78;;;;;;;11.51;65.87;100543.16;2180025;80;21541;-75
2022/05/15 00:18:08;;;;;;;20.10;10.03;;;;;;;11.40;65.89;100512.41;2186978;80;21051;-75
2022/05/15 00:21:11;;;;;;;16.62;8.98;;;;;;;11.53;65.86;100550.48;2180959;80;21020;-75
2022/05/15 00:24:12;;;;;;;26.17;11.15;;;;;;;11.44;65.95;100546.97;2179358;80;21091;-75
2022/05/15 00:27:13;;;;;;;21.33;11.60;;;;;;;11.21;66.17;100548.06;2184785;80;21493;-75
2022/05/15 00:30:20;;;;;;;28.05;11.43;;;;;;;11.14;66.34;100553.67;2189764;80;21636;-75
2022/05/15 00:33:22;;;;;;;31.60;14.07;;;;;;;11.13;66.46;100552.84;2157596;80;21036;-75
2022/05/15 00:36:24;;;;;;;26.80;13.55;;;;;;;11.17;66.58;100552.84;2183333;80;21056;-75
2022/05/15 00:39:25;;;;;;;31.10;15.03;;;;;;;11.21;66.62;100558.69;2181741;80;21394;-75
2022/05/15 00:42:26;;;;;;;35.75;15.65;;;;;;;11.08;66.61;100543.19;2192730;79;21107;-74
2022/05/15 00:45:27;;;;;;;27.95;12.78;;;;;;;11.21;66.62;100559.52;2187519;80;20996;-75
2022/05/15 00:48:28;;;;;;;27.95;12.78;;;;;;;11.22;66.68;100563.83;2184122;80;21465;-75
2022/05/15 00:51:41;;;;;;;29.18;12.18;;;;;;;11.28;67.07;100557.55;2176703;80;21022;-75
2022/05/15 00:55:09;;;;;;;24.45;12.65;;;;;;;11.30;67.15;100563.53;2192276;80;21056;-75
2022/05/15 00:58:21;;;;;;;26.05;11.75;;;;;;;11.31;67.20;100563.36;2182284;79;21126;-75
2022/05/15 01:01:22;;;;;;;25.32;12.55;;;;;;;11.32;67.34;100565.52;2176097;80;21608;-76
2022/05/15 01:04:23;;;;;;;29.27;12.98;;;;;;;11.30;67.42;100572.83;2183464;80;21103;-77
2022/05/15 01:07:24;;;;;;;28.45;12.35;;;;;;;11.34;67.46;100565.69;2178853;80;21019;-74
2022/05/15 01:10:26;;;;;;;21.23;12.00;;;;;;;11.36;67.40;100571.69;2186726;79;21038;-75
2022/05/15 01:13:31;;;;;;;24.98;11.40;;;;;;;11.39;67.53;100568.70;2190393;79;20991;-75
2022/05/15 01:16:34;;;;;;;28.10;12.05;;;;;;;11.45;67.56;100565.90;2176456;80;21107;-75
2022/05/15 01:19:40;;;;;;;25.12;11.70;;;;;;;11.47;67.52;100567.91;2153729;80;21122;-74
2022/05/15 01:22:41;;;;;;;23.87;10.08;;;;;;;11.53;67.54;100563.27;2176803;79;21035;-75
2022/05/15 01:25:42;;;;;;;22.85;9.90;;;;;;;11.58;67.70;100571.59;2175668;80;21031;-75
2022/05/15 01:28:47;;;;;;;27.20;10.88;;;;;;;11.58;67.70;100571.59;2184011;80;21014;-75
2022/05/15 01:31:49;;;;;;;23.83;9.00;;;;;;;11.59;67.38;100569.26;2189984;80;21010;-75
2022/05/15 01:34:50;;;;;;;16.70;8.15;;;;;;;11.63;67.37;100567.95;2188028;80;21004;-75
2022/05/15 01:37:52;;;;;;;17.12;7.58;;;;;;;11.66;67.11;100570.79;2180348;80;21560;-75
2022/05/15 01:40:53;;;;;;;19.12;8.45;;;;;;;11.60;66.87;100570.94;2182334;80;21549;-75
2022/05/15 01:43:54;;;;;;;19.12;9.00;;;;;;;11.48;67.12;100550.95;2175619;80;21089;-74
2022/05/15 01:46:57;;;;;;;21.48;8.50;;;;;;;11.48;67.12;100550.95;2190537;80;21148;-75
2022/05/15 01:49:59;;;;;;;20.37;8.10;;;;;;;11.57;66.87;100567.28;2182941;80;21029;-75
2022/05/15 01:53:01;;;;;;;16.65;8.73;;;;;;;11.45;66.81;100548.63;2186544;80;21574;-75
2022/05/15 01:56:04;;;;;;;17.92;8.43;;;;;;;11.54;66.77;100566.25;2187621;80;21093;-74
2022/05/15 01:59:08;;;;;;;17.37;7.47;;;;;;;11.53;66.75;100571.23;2180768;79;21578;-73
2022/05/15 02:02:10;;;;;;;16.80;8.20;;;;;;;11.37;66.78;100550.75;2177069;80;21612;-75
2022/05/15 02:05:12;;;;;;;15.50;7.70;;;;;;;11.32;66.73;100551.76;2192816;79;21588;-75
2022/05/15 02:08:13;;;;;;;19.27;8.50;;;;;;;11.32;66.73;100551.76;2179516;79;21062;-75
2022/05/15 02:11:15;;;;;;;15.15;7.70;;;;;;;11.44;66.83;100562.91;2179580;79;21468;-75
2022/05/15 02:14:16;;;;;;;21.02;8.35;;;;;;;11.40;66.90;100576.17;2185196;79;21114;-74
2022/05/15 02:17:18;;;;;;;20.37;7.53;;;;;;;11.40;66.90;100576.17;2181518;80;21497;-75
2022/05/15 02:20:19;;;;;;;19.15;7.28;;;;;;;11.37;66.79;100570.68;2195977;80;21085;-75
2022/05/15 02:23:21;;;;;;;18.32;7.70;;;;;;;11.36;67.02;100580.16;2191006;79;21051;-75
2022/05/15 02:26:23;;;;;;;16.17;7.20;;;;;;;11.36;67.02;100580.16;2191527;80;21043;-75
2022/05/15 02:29:25;;;;;;;20.48;7.58;;;;;;;11.35;66.81;100579.83;2177422;79;21510;-75
2022/05/15 02:32:26;;;;;;;10.15;6.55;;;;;;;11.18;66.84;100547.89;2189841;80;21054;-75
2022/05/15 02:35:28;;;;;;;16.77;7.28;;;;;;;11.30;66.81;100580.80;2187682;80;21006;-75
2022/05/15 02:38:29;;;;;;;16.12;6.58;;;;;;;11.29;66.79;100585.76;2186896;80;21054;-75
2022/05/15 02:41:30;;;;;;;22.55;8.23;;;;;;;11.28;66.78;100583.61;2188988;80;21088;-75
2022/05/15 02:44:32;;;;;;;15.78;7.92;;;;;;;11.16;66.63;100574.27;2162182;80;21617;-75
2022/05/15 02:47:33;;;;;;;14.07;6.70;;;;;;;11.26;66.70;100585.58;2154874;80;20995;-75
2022/05/15 02:53:54;;;;;;;13.53;6.73;;;;;;;11.25;66.56;100590.56;2189674;80;21077;-76
2022/05/15 02:56:56;;;;;;;14.10;6.60;;;;;;;11.20;66.63;100596.34;2176749;79;20971;-76
2022/05/15 02:59:57;;;;;;;15.72;6.92;;;;;;;11.16;66.58;100595.52;2177809;80;21586;-76
2022/05/15 03:02:59;;;;;;;14.55;6.95;;;;;;;11.11;66.68;100598.64;2189636;80;21010;-76
2022/05/15 03:06:01;;;;;;;17.23;6.65;;;;;;;11.07;66.70;100599.13;2183185;80;21535;-76
2022/05/15 03:09:02;;;;;;;16.70;6.92;;;;;;;11.03;66.84;100601.25;2196398;80;21056;-76
2022/05/15 03:12:05;;;;;;;21.93;6.90;;;;;;;10.98;66.81;100605.72;2191299;80;21112;-75
2022/05/15 03:15:11;;;;;;;16.45;6.70;;;;;;;10.98;66.81;100605.72;2181098;79;21035;-75
2022/05/15 03:18:12;;;;;;;15.68;6.45;;;;;;;10.96;66.84;100610.34;2185754;80;21010;-75
2022/05/15 03:21:28;;;;;;;15.23;6.58;;;;;;;10.95;66.86;100610.49;2182278;80;21049;-76
2022/05/15 03:24:17;;;;;;;14.05;6.35;;;;;;;10.90;66.82;100607.00;2180090;80;21008;-76
2022/05/15 03:27:21;;;;;;;19.77;7.17;;;;;;;10.87;66.94;100614.42;2183408;80;21057;-76
2022/05/15 03:30:23;;;;;;;18.55;6.25;;;;;;;10.88;67.00;100618.27;2160497;80;21002;-75
2022/05/15 03:33:24;;;;;;;13.62;6.37;;;;;;;10.88;67.00;100618.77;2179539;80;21103;-76
2022/05/15 03:36:26;;;;;;;17.62;6.72;;;;;;;10.94;67.09;100626.09;2182391;80;21587;-76
2022/05/15 03:39:28;;;;;;;17.62;7.17;;;;;;;11.08;67.24;100627.34;2160026;80;21064;-76
2022/05/15 03:42:29;;;;;;;16.90;7.05;;;;;;;11.27;67.22;100627.61;2183689;79;20989;-75
2022/05/15 03:45:31;;;;;;;14.78;6.22;;;;;;;11.64;66.87;100626.75;2183518;80;21581;-75
2022/05/15 03:48:33;;;;;;;14.45;6.35;;;;;;;11.64;66.87;100626.75;2188638;80;21079;-76
2022/05/15 03:51:35;;;;;;;12.65;6.30;;;;;;;11.86;66.87;100633.34;2175183;79;20995;-76
2022/05/15 03:54:36;;;;;;;14.35;6.17;;;;;;;12.15;66.71;100643.20;2179906;79;21113;-74
2022/05/15 03:57:38;;;;;;;11.97;6.20;;;;;;;12.47;66.48;100643.23;2185951;80;21052;-75
2022/05/15 04:00:41;;;;;;;16.87;6.28;;;;;;;12.85;66.42;100638.70;2182932;80;21045;-75
2022/05/15 04:03:43;;;;;;;15.38;6.33;;;;;;;13.30;66.24;100639.45;2184173;80;21098;-75
2022/05/15 04:06:45;;;;;;;12.37;5.83;;;;;;;13.77;65.66;100646.59;2179692;80;21079;-75
2022/05/15 04:09:46;;;;;;;15.88;5.25;;;;;;;14.19;64.89;100644.02;2187922;79;21069;-75
2022/05/15 04:12:48;;;;;;;11.65;5.50;;;;;;;14.59;64.46;100638.06;2184219;80;21924;-75
2022/05/15 04:15:50;;;;;;;10.78;5.78;;;;;;;15.14;63.94;100637.34;2178395;79;21050;-75
2022/05/15 04:18:51;;;;;;;13.90;5.75;;;;;;;15.68;63.29;100643.73;2183811;80;21029;-75
2022/05/15 04:21:52;;;;;;;13.53;5.22;;;;;;;16.06;62.25;100641.71;2180389;79;20987;-74
2022/05/15 04:24:53;;;;;;;11.28;5.20;;;;;;;16.33;61.55;100645.98;2188561;80;21662;-75
2022/05/15 04:27:55;;;;;;;13.43;4.72;;;;;;;16.66;60.79;100646.28;2176719;80;21079;-75
2022/05/15 04:30:58;;;;;;;12.93;4.80;;;;;;;16.93;59.91;100650.03;2191007;80;21036;-75
2022/05/15 04:34:02;;;;;;;9.85;4.67;;;;;;;17.15;59.25;100653.48;2181616;79;21097;-75
2022/05/15 04:37:03;;;;;;;16.48;4.75;;;;;;;17.47;58.59;100652.00;2173204;80;20992;-76
2022/05/15 04:40:08;;;;;;;13.95;4.03;;;;;;;17.81;57.95;100653.00;2194872;80;21085;-76
2022/05/15 04:43:09;;;;;;;12.50;4.75;;;;;;;18.05;57.01;100660.22;2184209;79;21061;-76
2022/05/15 04:46:10;;;;;;;12.75;5.12;;;;;;;18.20;56.43;100659.52;2181232;80;20943;-76
2022/05/15 04:49:11;;;;;;;18.12;5.50;;;;;;;18.34;55.33;100659.84;2179370;80;21088;-75
2022/05/15 04:52:12;;;;;;;14.53;5.72;;;;;;;18.54;55.38;100662.55;2179779;80;21109;-74
2022/05/15 04:55:15;;;;;;;15.48;5.12;;;;;;;18.67;54.73;100668.46;2177768;80;21051;-71
2022/05/15 04:58:17;;;;;;;13.10;5.00;;;;;;;18.89;54.40;100661.54;2177160;79;21003;-71
2022/05/15 05:01:18;;;;;;;16.00;5.12;;;;;;;19.14;53.66;100669.27;2192854;79;21603;-72
2022/05/15 05:04:19;;;;;;;12.78;4.95;;;;;;;19.28;53.18;100673.28;2185686;80;20997;-71
2022/05/15 05:07:20;;;;;;;14.80;4.92;;;;;;;19.62;52.74;100675.65;2185512;80;21041;-71
2022/05/15 05:10:22;;;;;;;11.20;4.78;;;;;;;19.70;51.97;100677.32;2184627;80;20990;-72
2022/05/15 05:13:23;;;;;;;12.88;4.97;;;;;;;19.71;51.04;100680.34;2188484;80;21029;-72
2022/05/15 05:16:25;;;;;;;10.60;4.42;;;;;;;19.73;50.82;100682.80;2183690;79;21085;-72
2022/05/15 05:19:26;;;;;;;14.95;4.87;;;;;;;19.89;50.67;100682.32;2184308;80;21073;-72
2022/05/15 05:22:28;;;;;;;13.32;4.53;;;;;;;20.09;50.20;100687.08;2175342;80;21045;-72
2022/05/15 05:25:29;;;;;;;11.12;4.50;;;;;;;20.19;49.52;100684.43;2183535;80;21010;-72
2022/05/15 05:28:31;;;;;;;16.23;4.60;;;;;;;20.34;49.48;100697.10;2186010;80;21086;-72
2022/05/15 05:31:33;;;;;;;14.47;4.65;;;;;;;20.37;48.70;100700.70;2186006;80;21071;-72
2022/05/15 05:34:35;;;;;;;10.98;4.50;;;;;;;20.44;48.56;100700.66;2180051;80;21124;-73
2022/05/15 05:37:36;;;;;;;14.28;4.55;;;;;;;20.39;47.01;100709.41;2189144;80;21051;-71
2022/05/15 05:40:38;;;;;;;10.10;3.95;;;;;;;20.25;47.17;100713.23;2186806;80;21063;-71
2022/05/15 05:43:39;;;;;;;14.58;4.33;;;;;;;20.24;47.19;100707.52;2185383;80;21119;-72
2022/05/15 05:46:41;;;;;;;13.98;4.53;;;;;;;20.32;47.17;100709.43;2182518;80;21800;-71
2022/05/15 05:49:44;;;;;;;8.35;3.98;;;;;;;20.53;46.90;100709.66;2185872;80;21036;-70
2022/05/15 05:52:45;;;;;;;14.28;4.30;;;;;;;20.55;46.02;100713.47;2185495;80;21531;-71
2022/05/15 05:55:46;;;;;;;10.65;3.80;;;;;;;20.67;46.13;100710.39;2182812;80;20993;-71
2022/05/15 05:58:48;;;;;;;10.08;3.72;;;;;;;20.84;45.87;100715.25;2187594;80;21092;-73
2022/05/15 06:01:49;;;;;;;11.12;3.25;;;;;;;20.92;45.34;100716.30;2179668;80;21508;-73
2022/05/15 06:04:50;;;;;;;13.68;3.42;;;;;;;20.92;45.50;100719.84;2191054;80;21088;-74
2022/05/15 06:07:52;;;;;;;8.10;3.00;;;;;;;21.04;44.10;100721.30;2189477;80;21355;-74
2022/05/15 06:10:53;;;;;;;7.15;3.65;;;;;;;21.07;44.22;100729.47;2191482;80;21961;-71
2022/05/15 06:13:54;;;;;;;25.60;4.08;;;;;;;21.13;43.91;100726.70;2184466;80;21278;-74
2022/05/15 06:16:55;;;;;;;9.80;3.52;;;;;;;21.13;43.58;100731.28;2181694;80;21764;-69
2022/05/15 06:19:57;;;;;;;8.70;3.12;;;;;;;21.23;43.21;100737.83;2191281;80;21053;-71
2022/05/15 06:22:58;;;;;;;8.73;4.00;;;;;;;21.25;43.36;100736.23;2183648;80;21552;-69
2022/05/15 06:25:59;;;;;;;12.90;3.47;;;;;;;21.11;43.20;100733.36;2192023;80;21009;-69
2022/05/15 06:29:00;;;;;;;9.38;3.60;;;;;;;21.06;43.27;100738.06;2184919;80;21638;-69
2022/05/15 06:32:02;;;;;;;9.50;2.83;;;;;;;21.27;42.80;100736.32;2190232;79;21069;-69
2022/05/15 06:35:05;;;;;;;9.35;2.98;;;;;;;21.35;42.62;100731.17;2177907;80;21129;-68
2022/05/15 06:38:09;;;;;;;9.85;3.17;;;;;;;21.43;42.79;100735.49;2184219;80;21037;-69
2022/05/15 06:41:11;;;;;;;8.18;3.10;;;;;;;21.61;41.62;100740.07;2182313;80;21036;-68
2022/05/15 06:44:12;;;;;;;7.25;2.65;;;;;;;21.48;41.68;100735.13;2178800;79;21054;-69
2022/05/15 06:47:14;;;;;;;8.63;3.70;;;;;;;21.54;41.74;100734.75;2183116;80;21613;-70
2022/05/15 06:50:16;;;;;;;7.75;2.62;;;;;;;21.71;41.60;100745.78;2194538;80;21050;-69
2022/05/15 06:53:18;;;;;;;8.03;3.17;;;;;;;21.72;41.26;100737.97;2184684;79;21527;-69
2022/05/15 06:59:40;;;;;;;8.65;2.87;;;;;;;21.71;40.91;100743.09;2182924;80;21030;-69
2022/05/15 07:02:42;;;;;;;7.00;2.87;;;;;;;21.89;41.11;100751.16;2185198;80;21019;-69
2022/05/15 07:05:44;;;;;;;8.68;2.95;;;;;;;22.09;40.82;100746.87;2190189;80;21038;-69
2022/05/15 07:08:45;;;;;;;7.62;2.67;;;;;;;22.04;40.36;100756.70;2182516;80;21056;-72
2022/05/15 07:11:47;;;;;;;10.32;2.58;;;;;;;22.31;40.55;100745.88;2189712;80;20995;-72
2022/05/15 07:14:47;;;;;;;9.25;2.90;;;;;;;22.31;39.28;100746.41;2184034;79;21003;-71
2022/05/15 07:17:49;;;;;;;8.83;2.90;;;;;;;22.25;38.86;100757.61;2188703;80;21462;-69
2022/05/15 07:20:51;;;;;;;10.93;3.08;;;;;;;21.99;39.26;100752.50;2173862;80;21030;-69
2022/05/15 07:23:52;;;;;;;6.70;2.42;;;;;;;21.88;38.94;100749.53;2176671;80;21094;-69
2022/05/15 07:26:54;;;;;;;7.67;2.58;;;;;;;21.78;39.16;100747.88;2185372;79;21888;-70
2022/05/15 07:29:55;;;;;;;7.97;2.20;;;;;;;21.80;38.96;100744.42;2191495;80;20975;-69
2022/05/15 07:32:56;;;;;;;7.08;2.77;;;;;;;21.95;38.84;100749.44;2168480;80;21067;-69
2022/05/15 07:35:57;;;;;;;7.35;2.25;;;;;;;22.12;37.64;100753.70;2184293;79;20996;-69
2022/05/15 07:38:59;;;;;;;7.53;2.67;;;;;;;22.15;37.82;100750.53;2178561;80;21527;-76
2022/05/15 07:42:00;;;;;;;6.90;2.60;;;;;;;22.22;38.07;100747.27;2182602;80;21038;-76
2022/05/15 07:45:01;;;;;;;7.72;3.00;;;;;;;22.04;38.03;100745.90;2192988;79;21047;-72
2022/05/15 07:48:03;;;;;;;5.55;2.25;;;;;;;22.15;38.36;100747.30;2167032;80;21058;-73
2022/05/15 07:51:05;;;;;;;9.90;2.33;;;;;;;22.31;37.58;100752.64;2181151;80;21076;-73
2022/05/15 07:54:06;;;;;;;5.58;2.40;;;;;;;22.38;37.20;100743.92;2187733;80;20974;-72
2022/05/15 07:57:07;;;;;;;5.20;2.02;;;;;;;22.31;37.59;100739.13;2184500;80;21029;-72
2022/05/15 08:00:14;;;;;;;6.53;2.42;;;;;;;22.29;37.63;100737.17;2191349;80;20998;-72
2022/05/15 08:03:16;;;;;;;12.20;2.58;;;;;;;22.15;36.62;100739.72;2180942;79;20990;-70
2022/05/15 08:09:36;;;;;;;6.30;2.52;;;;;;;22.54;38.29;100738.91;2173397;80;21394;-72
2022/05/15 08:12:39;;;;;;;6.03;2.22;;;;;;;22.76;37.84;100737.85;2176235;80;21054;-71
2022/05/15 08:15:41;;;;;;;5.95;2.17;;;;;;;23.07;37.38;100742.16;2173407;80;21366;-74
2022/05/15 08:25:23;;;;;;;6.95;2.12;;;;;;;23.14;36.86;100730.67;2173544;80;21047;-75
2022/05/15 08:28:24;;;;;;;9.35;2.35;;;;;;;23.22;35.93;100745.75;2178691;80;21563;-78
2022/05/15 08:31:27;;;;;;;7.95;3.00;;;;;;;23.10;35.70;100740.34;2184738;80;21367;-74
2022/05/15 08:34:29;;;;;;;6.80;2.10;;;;;;;22.76;36.53;100749.49;2193429;80;21456;-74
2022/05/15 08:37:30;;;;;;;6.67;2.75;;;;;;;23.04;36.89;100752.92;2179490;80;21039;-74
2022/05/15 08:40:53;;;;;;;4.45;1.90;;;;;;;23.17;36.56;100742.41;2187883;79;21553;-72
2022/05/15 08:44:09;;;;;;;7.58;2.17;;;;;;;23.19;35.74;100739.45;2180245;79;21006;-73
2022/05/15 08:47:34;;;;;;;5.08;2.08;;;;;;;23.11;36.02;100741.97;2176764;80;22535;-77
2022/05/15 08:50:46;;;;;;;5.42;2.10;;;;;;;23.13;35.29;100739.86;2186296;80;21029;-72
2022/05/15 08:53:51;;;;;;;5.28;2.20;;;;;;;22.79;35.52;100742.27;2181459;80;21069;-71
2022/05/15 08:56:54;;;;;;;3.15;2.12;;;;;;;22.72;35.48;100744.27;2183904;80;21575;-71
2022/05/15 08:59:59;;;;;;;5.00;1.85;;;;;;;22.92;35.91;100743.09;2196083;80;21076;-71
2022/05/15 09:03:18;;;;;;;6.15;2.27;;;;;;;23.10;35.76;100734.92;2184378;80;21069;-70
2022/05/15 09:06:36;;;;;;;4.25;1.92;;;;;;;23.02;34.97;100741.50;2188208;79;21025;-70
2022/05/15 09:09:49;;;;;;;6.70;1.87;;;;;;;22.89;35.09;100739.00;2166506;80;21592;-71
2022/05/15 09:13:14;;;;;;;4.53;2.12;;;;;;;22.85;35.40;100745.10;2181477;80;20968;-71
2022/05/15 09:16:25;;;;;;;6.90;1.60;;;;;;;23.01;35.16;100743.92;2187262;80;21072;-70
2022/05/15 09:19:27;;;;;;;6.87;1.72;;;;;;;23.21;34.70;100738.70;2180033;80;21002;-71
2022/05/15 09:22:38;;;;;;;5.83;1.65;;;;;;;23.16;34.27;100751.57;2183518;80;21059;-71
2022/05/15 09:25:40;;;;;;;6.50;1.75;;;;;;;23.17;34.33;100741.56;2192480;80;21023;-71
2022/05/15 09:28:52;;;;;;;3.08;1.60;;;;;;;23.09;32.77;100754.94;2181464;80;21043;-71
2022/05/15 09:31:54;;;;;;;3.45;1.70;;;;;;;22.89;32.95;100743.56;2183895;80;21049;-72
2022/05/15 09:34:59;;;;;;;2.90;1.35;;;;;;;22.69;33.10;100743.34;2182567;80;21033;-71
2022/05/15 09:44:50;;;;;;;7.97;1.70;;;;;;;22.95;33.77;100739.45;2186246;80;20963;-72
2022/05/15 09:48:00;;;;;;;3.67;1.57;;;;;;;23.17;33.31;100741.06;2171978;79;21430;-73
2022/05/15 09:51:06;;;;;;;3.00;1.50;;;;;;;23.37;33.91;100735.80;2179646;80;21095;-73
2022/05/15 09:54:11;;;;;;;2.87;1.22;;;;;;;23.55;31.47;100735.67;2169992;80;20994;-73
2022/05/15 09:57:28;;;;;;;3.50;1.40;;;;;;;23.24;30.88;100733.62;2169527;80;21121;-73
2022/05/15 10:00:38;;;;;;;4.17;1.85;;;;;;;23.02;30.65;100740.68;2184827;80;21076;-74
2022/05/15 10:03:40;;;;;;;4.85;1.72;;;;;;;23.03;31.55;100740.97;2174396;80;21055;-74
2022/05/15 10:07:02;;;;;;;2.67;1.25;;;;;;;23.26;31.90;100734.22;2172499;79;20996;-74
2022/05/15 10:10:25;;;;;;;2.77;1.30;;;;;;;23.23;29.89;100733.34;2148853;80;21397;-75
2022/05/15 10:13:36;;;;;;;4.05;1.50;;;;;;;23.30;31.36;100740.52;2182352;80;21463;-75
2022/05/15 10:16:59;;;;;;;4.92;1.95;;;;;;;23.73;31.42;100729.84;2181588;80;21001;-75
2022/05/15 10:20:09;;;;;;;2.83;1.47;;;;;;;23.95;31.22;100733.55;2185661;80;21051;-73
2022/05/15 10:23:18;;;;;;;2.72;1.20;;;;;;;24.19;31.63;100734.30;2167139;79;21018;-76
2022/05/15 10:26:28;;;;;;;5.75;1.52;;;;;;;24.04;30.84;100729.39;2183270;80;21068;-75
2022/05/15 10:29:53;;;;;;;2.85;1.22;;;;;;;24.10;30.62;100718.96;2167510;80;21084;-75
2022/05/15 10:33:00;;;;;;;3.67;1.40;;;;;;;23.79;30.96;100727.52;2175189;79;21113;-75
2022/05/15 10:36:27;;;;;;;3.80;1.55;;;;;;;23.70;30.49;100726.53;2181412;80;21113;-75
2022/05/15 10:39:40;;;;;;;4.65;2.00;;;;;;;23.82;30.21;100721.63;2186305;80;21059;-75
2022/05/15 10:42:49;;;;;;;3.22;1.62;;;;;;;23.45;30.57;100716.48;2186063;80;21089;-75
2022/05/15 10:46:08;;;;;;;3.37;1.10;;;;;;;23.24;30.61;100724.16;2182752;80;20970;-75
2022/05/15 10:49:29;;;;;;;2.80;1.42;;;;;;;23.10;31.46;100722.74;2177064;80;21113;-74
2022/05/15 10:52:42;;;;;;;6.62;1.47;;;;;;;22.98;31.29;100724.09;2174577;80;21601;-75
2022/05/15 10:59:31;;;;;;;3.27;1.25;;;;;;;22.89;30.65;100724.13;2131787;82;21144;-74
2022/05/15 11:03:08;;;;;;;4.85;1.77;;;;;;;22.92;31.20;100717.39;2126338;82;21580;-74
2022/05/15 11:06:43;;;;;;;2.17;1.22;;;;;;;23.09;31.63;100710.28;2178813;80;21148;-73
2022/05/15 11:10:11;;;;;;;2.65;1.35;;;;;;;23.23;31.21;100708.98;2183076;80;20994;-74
2022/05/15 11:13:23;;;;;;;5.00;1.20;;;;;;;23.18;28.13;100703.45;2189218;80;21564;-74
2022/05/15 11:16:50;;;;;;;2.72;1.50;;;;;;;22.64;30.34;100698.62;2171726;80;21601;-74
2022/05/15 11:19:57;;;;;;;1.75;1.22;;;;;;;22.76;30.92;100689.98;2179505;79;21053;-74
2022/05/15 11:23:19;;;;;;;2.22;1.40;;;;;;;22.81;30.81;100691.46;2176998;79;22584;-75
2022/05/15 11:26:28;;;;;;;4.37;1.25;;;;;;;22.91;30.60;100691.41;2183017;80;21103;-75
2022/05/15 11:29:32;;;;;;;2.67;1.20;;;;;;;22.95;30.20;100693.95;2177868;80;21021;-75
2022/05/15 11:32:50;;;;;;;4.47;1.45;;;;;;;22.92;30.55;100692.53;2179091;80;20958;-75
2022/05/15 11:36:33;;;;;;;2.47;1.00;;;;;;;22.87;29.06;100680.77;2167978;80;21084;-76
2022/05/15 11:39:35;;;;;;;1.98;0.95;;;;;;;22.88;30.15;100677.81;2179029;80;21076;-75
2022/05/15 11:42:37;;;;;;;1.72;1.12;;;;;;;22.90;27.93;100672.18;2174907;79;20998;-76
2022/05/15 11:45:42;;;;;;;2.10;0.98;;;;;;;22.85;28.64;100673.41;2175951;80;22043;-76
2022/05/15 11:48:52;;;;;;;2.92;1.10;;;;;;;22.79;29.79;100669.75;2182795;80;21089;-75
2022/05/15 11:52:14;;;;;;;1.02;0.95;;;;;;;22.92;29.40;100670.04;2172946;80;21033;-75
2022/05/15 11:55:42;;;;;;;3.05;1.50;;;;;;;22.80;28.94;100667.33;2176139;80;21078;-76
2022/05/15 11:58:43;;;;;;;2.47;1.10;;;;;;;22.65;28.56;100665.09;2184179;80;21016;-76
2022/05/15 12:01:52;;;;;;;1.52;1.07;;;;;;;22.35;29.65;100664.61;2175846;80;21035;-76
2022/05/15 12:05:02;;;;;;;1.25;0.95;;;;;;;22.54;30.23;100667.25;2187793;79;21084;-75
2022/05/15 12:08:21;;;;;;;0.95;0.72;;;;;;;22.69;28.87;100659.50;2172044;80;21540;-75
2022/05/15 12:11:33;;;;;;;2.35;1.00;;;;;;;22.69;28.87;100659.50;2191164;80;21130;-75
2022/05/15 12:14:36;;;;;;;1.52;1.00;;;;;;;22.66;28.67;100661.32;2180068;80;21029;-74
2022/05/15 12:17:44;;;;;;;3.75;0.82;;;;;;;22.48;29.60;100660.07;2175548;80;21487;-75
2022/05/15 12:20:49;;;;;;;2.00;1.20;;;;;;;22.51;29.54;100654.20;2185576;80;21048;-75
2022/05/15 12:27:19;;;;;;;2.27;1.40;;;;;;;22.40;30.00;100650.41;2180721;80;21616;-75
2022/05/15 12:30:22;;;;;;;7.40;1.53;;;;;;;22.29;29.77;100646.62;2177129;79;21057;-75
2022/05/15 12:33:28;;;;;;;1.62;1.12;;;;;;;22.29;30.13;100646.62;2181198;80;21363;-74
2022/05/15 12:36:39;;;;;;;2.90;1.52;;;;;;;22.32;29.82;100635.34;2177025;80;21055;-75
2022/05/15 12:39:45;;;;;;;1.60;1.02;;;;;;;22.34;29.90;100633.77;2184295;80;21047;-74
2022/05/15 12:42:48;;;;;;;3.95;1.35;;;;;;;22.42;29.52;100625.33;2160090;80;21014;-74
2022/05/15 12:45:49;;;;;;;4.05;1.27;;;;;;;22.45;29.80;100626.74;2180040;80;21125;-75
2022/05/15 12:48:51;;;;;;;1.90;1.42;;;;;;;22.58;29.67;100622.45;2173104;80;21016;-76
2022/05/15 12:51:52;;;;;;;4.85;2.62;;;;;;;22.53;29.15;100624.52;2176240;79;22341;-76
2022/05/15 12:55:01;;;;;;;15.70;8.53;;;;;;;22.47;29.00;100623.25;2186001;79;21088;-79
2022/05/15 12:58:07;;;;;;;5.72;2.72;;;;;;;22.53;29.29;100621.00;2185698;80;22253;-80
2022/05/15 13:01:13;;;;;;;8.15;5.17;;;;;;;22.28;28.81;100615.25;2177680;79;21117;-76
2022/05/15 13:04:26;;;;;;;91.05;51.18;;;;;;;22.10;29.11;100613.42;2184479;80;21010;-79
2022/05/15 13:07:32;;;;;;;14.95;7.70;;;;;;;21.88;29.51;100607.70;2177557;80;21036;-75
2022/05/15 13:10:37;;;;;;;12.93;6.75;;;;;;;22.00;29.10;100607.74;2175150;80;21076;-71
2022/05/15 13:13:39;;;;;;;95.20;57.58;;;;;;;22.07;29.31;100608.45;2178028;80;21040;-75
2022/05/15 13:16:45;;;;;;;36.93;23.67;;;;;;;22.10;29.70;100607.17;2184699;80;21040;-73
2022/05/15 13:19:51;;;;;;;49.08;37.23;;;;;;;22.21;30.10;100602.35;2180816;80;21025;-75
2022/05/15 13:22:54;;;;;;;33.15;25.10;;;;;;;22.26;29.64;100600.31;2182099;79;20976;-71
2022/05/15 13:25:57;;;;;;;3.67;1.87;;;;;;;22.16;29.64;100603.56;2182650;80;21706;-70
2022/05/15 13:29:01;;;;;;;11.40;9.25;;;;;;;21.78;29.45;100602.55;2182030;79;21115;-71
2022/05/15 13:32:04;;;;;;;12.13;6.17;;;;;;;21.65;29.21;100596.29;2170467;79;20982;-69
2022/05/15 13:35:09;;;;;;;24.75;15.98;;;;;;;21.80;30.03;100597.76;2177662;80;21645;-72
2022/05/15 13:38:31;;;;;;;4.78;2.85;;;;;;;21.92;29.70;100594.02;2182770;80;21090;-74
2022/05/15 13:44:54;;;;;;;5.60;1.00;;;;;;;22.10;29.30;100587.75;2175898;79;21598;-71
2022/05/15 13:48:09;;;;;;;0.80;0.80;;;;;;;22.08;29.22;100572.82;2176124;79;21001;-70
2022/05/15 13:51:15;;;;;;;2.15;1.05;;;;;;;22.18;29.15;100578.49;2184775;80;21045;-72
2022/05/15 13:54:27;;;;;;;1.82;0.90;;;;;;;22.25;29.58;100583.28;2182325;80;21098;-71
2022/05/15 13:57:31;;;;;;;2.58;1.35;;;;;;;22.32;29.31;100575.87;2183663;80;21014;-71
2022/05/15 14:00:34;;;;;;;1.95;1.17;;;;;;;22.11;29.08;100577.23;2184233;80;21385;-71
2022/05/15 14:03:37;;;;;;;0.98;0.80;;;;;;;21.96;28.84;100571.41;2173646;80;21481;-70
2022/05/15 14:06:45;;;;;;;2.75;1.05;;;;;;;21.87;28.91;100566.88;2185072;80;21024;-71
2022/05/15 14:09:51;;;;;;;1.57;1.10;;;;;;;21.75;29.51;100568.72;2195382;79;21090;-71
2022/05/15 14:12:58;;;;;;;2.42;1.10;;;;;;;21.81;29.47;100562.92;2177713;80;21018;-71
2022/05/15 14:15:59;;;;;;;3.67;0.93;;;;;;;21.90;29.57;100567.76;2178785;80;21038;-71
2022/05/15 14:19:14;;;;;;;3.72;1.00;;;;;;;22.02;29.58;100561.56;2167615;80;21535;-71
2022/05/15 14:22:15;;;;;;;2.10;1.10;;;;;;;22.07;29.77;100559.81;2182051;80;21026;-72
2022/05/15 14:25:17;;;;;;;1.52;0.90;;;;;;;22.16;29.84;100564.38;2180705;80;21491;-70
2022/05/15 14:28:19;;;;;;;1.32;0.90;;;;;;;22.25;29.70;100556.79;2176562;80;21081;-70
2022/05/15 14:31:24;;;;;;;1.22;1.12;;;;;;;22.29;29.48;100546.61;2187072;80;21061;-71
2022/05/15 14:34:27;;;;;;;4.62;2.08;;;;;;;22.28;29.51;100543.62;2186540;80;21375;-72
2022/05/15 14:37:29;;;;;;;15.00;6.47;;;;;;;22.06;29.41;100549.25;2182246;79;21002;-70
2022/05/15 14:40:31;;;;;;;2.15;1.40;;;;;;;21.76;29.78;100546.58;2178158;80;21038;-70
2022/05/15 14:43:35;;;;;;;9.03;1.52;;;;;;;21.78;29.99;100547.19;2176011;79;21113;-70
2022/05/15 14:46:36;;;;;;;2.75;1.22;;;;;;;21.68;29.51;100543.17;2179663;80;21082;-70
2022/05/15 14:49:39;;;;;;;8.53;4.25;;;;;;;21.65;29.76;100540.94;2183051;80;20989;-70